createdAt,value
2018-05-13T00:02:25.768Z,99822.39
2018-05-13T00:04:55.427Z,99831.02
2018-05-13T00:07:25.146Z,99825.11
2018-05-13T00:09:54.833Z,99817.48
2018-05-13T00:12:24.518Z,99821.72
2018-05-13T00:14:54.199Z,99819.34
2018-05-13T00:17:23.909Z,99819.52
2018-05-13T00:19:53.718Z,99819.26
2018-05-13T00:22:23.300Z,99823.02
2018-05-13T00:24:53.034Z,99818.45
2018-05-13T00:27:22.824Z,99816.36
2018-05-13T00:29:52.563Z,99818.23
2018-05-13T00:32:22.237Z,99811.77
2018-05-13T00:34:51.835Z,99814.50
2018-05-13T00:37:21.598Z,99808.11
2018-05-13T00:39:51.496Z,99810.22
2018-05-13T00:42:21.289Z,99815.88
2018-05-13T00:44:50.851Z,99807.16
2018-05-13T00:47:20.721Z,99807.52
2018-05-13T00:49:50.401Z,99807.37
2018-05-13T00:52:19.932Z,99810.48
2018-05-13T00:54:56.765Z,99801.84
2018-05-13T00:57:26.503Z,99804.33
2018-05-13T00:59:56.373Z,99799.03
2018-05-13T01:02:26.203Z,99800.35
2018-05-13T01:04:55.816Z,99801.29
2018-05-13T01:07:25.665Z,99808.86
2018-05-13T01:09:55.348Z,99803.71
2018-05-13T01:12:25.212Z,99806.16
2018-05-13T01:14:54.791Z,99808.20
2018-05-13T01:17:24.431Z,99803.87
2018-05-13T01:19:54.272Z,99801.69
2018-05-13T01:22:23.911Z,99804.52
2018-05-13T01:24:53.826Z,99804.05
2018-05-13T01:27:23.512Z,99805.72
2018-05-13T01:29:53.244Z,99799.86
2018-05-13T01:32:22.983Z,99805.53
2018-05-13T01:34:52.818Z,99798.62
2018-05-13T01:37:22.401Z,99793.63
2018-05-13T01:39:52.118Z,99803.04
2018-05-13T01:42:21.887Z,99799.61
2018-05-13T01:44:51.547Z,99792.75
2018-05-13T01:47:21.421Z,99800.37
2018-05-13T01:49:50.962Z,99794.36
2018-05-13T01:52:20.544Z,99792.83
2018-05-13T01:54:50.383Z,99788.14
2018-05-13T01:57:20.043Z,99792.58
2018-05-13T01:59:49.756Z,99790.55
2018-05-13T02:02:19.455Z,99797.63
2018-05-13T02:04:49.136Z,99788.91
2018-05-13T02:07:18.846Z,99791.62
2018-05-13T02:09:48.733Z,99794.34
2018-05-13T02:12:18.302Z,99785.08
2018-05-13T02:14:48.091Z,99799.27
2018-05-13T02:17:17.860Z,99795.66
2018-05-13T02:19:47.433Z,99786.19
2018-05-13T02:22:17.326Z,99790.77
2018-05-13T02:24:47.005Z,99783.76
2018-05-13T02:27:16.794Z,99777.36
2018-05-13T02:29:48.676Z,99778.76
2018-05-13T02:32:18.342Z,99773.15
2018-05-13T02:34:47.997Z,99780.62
2018-05-13T02:37:17.772Z,99780.72
2018-05-13T02:39:47.440Z,99775.18
2018-05-13T02:42:17.208Z,99772.36
2018-05-13T02:44:47.051Z,99772.97
2018-05-13T02:47:16.644Z,99772.57
2018-05-13T02:49:46.382Z,99768.39
2018-05-13T02:52:16.153Z,99771.31
2018-05-13T02:54:45.884Z,99767.88
2018-05-13T02:57:15.576Z,99772.31
2018-05-13T02:59:45.296Z,99771.77
2018-05-13T03:02:15.037Z,99771.05
2018-05-13T03:04:44.746Z,99767.75
2018-05-13T03:07:14.428Z,99778.07
2018-05-13T03:09:44.136Z,99778.93
2018-05-13T03:12:13.938Z,99775.67
2018-05-13T03:14:43.551Z,99771.70
2018-05-13T03:17:13.300Z,99770.61
2018-05-13T03:19:43.090Z,99769.54
2018-05-13T03:22:13.694Z,99774.62
2018-05-13T03:24:43.455Z,99765.69
2018-05-13T03:27:13.076Z,99769.80
2018-05-13T03:29:42.885Z,99771.84
2018-05-13T03:32:12.629Z,99766.42
2018-05-13T03:34:42.461Z,99765.09
2018-05-13T03:37:12.208Z,99774.14
2018-05-13T03:39:41.880Z,99765.20
2018-05-13T03:42:11.550Z,99767.21
2018-05-13T03:44:41.352Z,99766.21
2018-05-13T03:47:11.196Z,99763.81
2018-05-13T03:49:40.951Z,99768.11
2018-05-13T03:52:10.693Z,99773.64
2018-05-13T03:54:40.474Z,99774.40
2018-05-13T03:57:10.072Z,99775.11
2018-05-13T03:59:39.718Z,99778.55
2018-05-13T04:02:09.435Z,99774.82
2018-05-13T04:04:39.127Z,99772.42
2018-05-13T04:07:08.889Z,99768.20
2018-05-13T04:09:49.298Z,99773.66
2018-05-13T04:13:29.459Z,99772.52
2018-05-13T04:15:59.330Z,99777.87
2018-05-13T04:18:29.033Z,99774.06
2018-05-13T04:20:58.772Z,99774.59
2018-05-13T04:23:28.704Z,99772.14
2018-05-13T04:25:58.445Z,99767.48
2018-05-13T04:28:28.323Z,99767.14
2018-05-13T04:30:58.893Z,99771.59
2018-05-13T04:33:28.647Z,99771.20
2018-05-13T04:35:58.410Z,99775.15
2018-05-13T04:38:28.127Z,99771.53
2018-05-13T04:40:57.817Z,99778.23
2018-05-13T04:43:27.409Z,99771.09
2018-05-13T04:45:58.021Z,99775.53
2018-05-13T04:48:28.014Z,99775.88
2018-05-13T04:50:57.814Z,99775.00
2018-05-13T04:53:27.604Z,99777.61
2018-05-13T04:55:57.773Z,99773.52
2018-05-13T04:58:27.686Z,99779.16
2018-05-13T05:00:57.474Z,99780.45
2018-05-13T05:03:27.236Z,99779.92
2018-05-13T05:05:57.028Z,99778.59
2018-05-13T05:08:26.689Z,99781.19
2018-05-13T05:10:56.439Z,99776.78
2018-05-13T05:13:26.080Z,99781.16
2018-05-13T05:15:55.821Z,99777.04
2018-05-13T05:18:25.502Z,99782.73
2018-05-13T05:20:55.121Z,99777.84
2018-05-13T05:23:24.834Z,99782.60
2018-05-13T05:25:54.526Z,99779.77
2018-05-13T05:28:24.197Z,99784.94
2018-05-13T05:30:53.853Z,99781.70
2018-05-13T05:33:23.476Z,99782.88
2018-05-13T05:35:53.306Z,99785.05
2018-05-13T05:38:23.006Z,99789.44
2018-05-13T05:40:52.713Z,99790.13
2018-05-13T05:43:22.499Z,99786.91
2018-05-13T05:45:52.221Z,99797.34
2018-05-13T05:48:21.960Z,99789.91
2018-05-13T05:50:51.662Z,99798.95
2018-05-13T05:53:21.465Z,99798.25
2018-05-13T05:55:51.091Z,99797.08
2018-05-13T05:58:20.866Z,99798.59
2018-05-13T06:00:50.593Z,99794.08
2018-05-13T06:03:20.498Z,99799.45
2018-05-13T06:05:50.246Z,99803.61
2018-05-13T06:08:19.965Z,99792.73
2018-05-13T06:10:49.740Z,99801.47
2018-05-13T06:13:19.490Z,99796.73
2018-05-13T06:15:49.157Z,99802.94
2018-05-13T06:18:18.870Z,99799.77
2018-05-13T06:20:48.520Z,99795.87
2018-05-13T06:23:18.101Z,99793.68
2018-05-13T06:25:51.906Z,99800.98
2018-05-13T06:28:21.546Z,99791.77
2018-05-13T06:30:51.397Z,99791.52
2018-05-13T06:33:21.248Z,99795.12
2018-05-13T06:35:50.906Z,99789.14
2018-05-13T06:38:20.607Z,99787.72
2018-05-13T06:40:50.154Z,99781.72
2018-05-13T06:43:19.740Z,99787.61
2018-05-13T06:45:49.599Z,99783.91
2018-05-13T06:48:19.211Z,99780.06
2018-05-13T06:50:48.893Z,99774.54
2018-05-13T06:53:18.743Z,99774.06
2018-05-13T06:55:49.413Z,99776.66
2018-05-13T06:58:19.423Z,99775.09
2018-05-13T07:00:49.028Z,99776.16
2018-05-13T07:03:18.855Z,99763.91
2018-05-13T07:05:48.721Z,99767.23
2018-05-13T07:08:18.289Z,99770.38
2018-05-13T07:10:47.979Z,99768.72
2018-05-13T07:13:17.778Z,99768.13
2018-05-13T07:15:47.451Z,99769.23
2018-05-13T07:18:17.249Z,99764.63
2018-05-13T07:20:46.915Z,99766.56
2018-05-13T07:23:17.215Z,99772.91
2018-05-13T07:25:46.965Z,99766.85
2018-05-13T07:28:16.597Z,99763.58
2018-05-13T07:30:47.596Z,99766.72
2018-05-13T07:33:17.456Z,99766.61
2018-05-13T07:35:47.276Z,99764.75
2018-05-13T07:38:17.080Z,99762.31
2018-05-13T07:40:46.808Z,99766.55
2018-05-13T07:43:16.574Z,99763.50
2018-05-13T07:45:47.350Z,99768.93
2018-05-13T07:48:17.142Z,99760.97
2018-05-13T07:50:46.681Z,99755.86
2018-05-13T07:53:16.446Z,99757.94
2018-05-13T07:55:46.135Z,99752.19
2018-05-13T07:58:15.828Z,99758.36
2018-05-13T08:00:45.734Z,99756.63
2018-05-13T08:03:15.560Z,99754.73
2018-05-13T08:05:45.266Z,99749.95
2018-05-13T08:08:15.038Z,99747.70
2018-05-13T08:10:44.591Z,99750.60
2018-05-13T08:13:14.440Z,99748.39
2018-05-13T08:15:44.133Z,99754.28
2018-05-13T08:18:13.857Z,99755.47
2018-05-13T08:20:43.648Z,99748.08
2018-05-13T08:23:13.354Z,99741.79
2018-05-13T08:25:43.056Z,99741.27
2018-05-13T08:28:12.859Z,99737.20
2018-05-13T08:30:42.464Z,99736.09
2018-05-13T08:33:12.179Z,99742.50
2018-05-13T08:35:41.838Z,99734.77
2018-05-13T08:38:11.645Z,99732.45
2018-05-13T08:40:41.410Z,99729.81
2018-05-13T08:43:11.032Z,99727.14
2018-05-13T08:45:41.772Z,99727.31
2018-05-13T08:48:11.456Z,99718.62
2018-05-13T08:50:41.393Z,99723.50
2018-05-13T08:53:11.196Z,99722.55
2018-05-13T08:55:40.953Z,99714.97
2018-05-13T08:58:10.858Z,99715.57
2018-05-13T09:00:40.447Z,99706.56
2018-05-13T09:03:10.059Z,99714.27
2018-05-13T09:05:39.811Z,99710.59
2018-05-13T09:08:09.551Z,99703.81
2018-05-13T09:10:39.143Z,99701.05
2018-05-13T09:13:09.000Z,99704.85
2018-05-13T09:15:39.283Z,99704.85
2018-05-13T09:18:09.613Z,99704.85
2018-05-13T09:20:41.116Z,99704.85
2018-05-13T09:23:11.477Z,99704.85
2018-05-13T09:25:41.857Z,99704.85
2018-05-13T09:28:12.286Z,99704.85
2018-05-13T09:30:42.572Z,99704.85
2018-05-13T09:33:12.969Z,99704.85
2018-05-13T09:35:43.380Z,99704.85
2018-05-13T09:38:13.938Z,99704.85
2018-05-13T09:40:44.312Z,99704.85
2018-05-13T09:43:14.794Z,99704.85
2018-05-13T09:45:45.231Z,99704.85
2018-05-13T09:48:15.483Z,99704.85
2018-05-13T09:50:45.904Z,99704.85
2018-05-13T09:53:16.329Z,99704.85
2018-05-13T09:55:46.907Z,99704.85
2018-05-13T09:58:17.432Z,99704.85
2018-05-13T10:00:47.831Z,99704.85
2018-05-13T10:03:18.353Z,99704.85
2018-05-13T10:05:48.810Z,99704.85
2018-05-13T10:08:19.468Z,99704.85
2018-05-13T10:10:50.090Z,99704.85
2018-05-13T10:13:20.503Z,99704.85
2018-05-13T10:15:50.989Z,99704.85
2018-05-13T10:18:21.370Z,99704.85
2018-05-13T10:20:51.893Z,99704.85
2018-05-13T10:23:22.295Z,99704.85
2018-05-13T10:25:54.266Z,99704.85
2018-05-13T10:28:24.719Z,99704.85
2018-05-13T10:30:55.158Z,99704.85
2018-05-13T10:33:25.529Z,99704.85
2018-05-13T10:47:08.864Z,99646.50
2018-05-13T10:49:38.451Z,99649.25
2018-05-13T10:52:07.964Z,99648.09
2018-05-13T10:54:37.706Z,99647.12
2018-05-13T10:57:07.590Z,99634.94
2018-05-13T10:59:36.920Z,99635.45
2018-05-13T11:02:06.523Z,99623.12
2018-05-13T11:04:36.026Z,99629.20
2018-05-13T11:07:05.539Z,99636.97
2018-05-13T11:09:38.001Z,99631.12
2018-05-13T11:12:08.167Z,99624.52
2018-05-13T11:14:38.926Z,99627.36
2018-05-13T11:17:09.454Z,99622.92
2018-05-13T11:19:39.576Z,99616.56
2018-05-13T11:22:09.579Z,99619.63
2018-05-13T11:24:39.898Z,99608.38
2018-05-13T11:27:10.674Z,99609.93
2018-05-13T11:29:41.171Z,99613.27
2018-05-13T11:32:11.316Z,99611.28
2018-05-13T11:34:41.057Z,99604.90
2018-05-13T11:37:11.952Z,99603.23
2018-05-13T11:39:42.258Z,99600.09
2018-05-13T11:42:12.936Z,99601.47
2018-05-13T11:44:46.352Z,99601.58
2018-05-13T11:47:17.102Z,99597.70
2018-05-13T11:49:48.004Z,99582.19
2018-05-13T11:52:20.487Z,99591.77
2018-05-13T11:54:51.453Z,99585.84
2018-05-13T11:57:21.567Z,99589.18
2018-05-13T11:59:51.629Z,99582.63
2018-05-13T12:02:21.219Z,99582.73
2018-05-13T12:04:50.863Z,99578.83
2018-05-13T12:07:20.510Z,99572.54
2018-05-13T12:09:49.986Z,99567.88
2018-05-13T12:12:19.900Z,99568.39
2018-05-13T12:14:50.200Z,99565.45
2018-05-13T12:17:20.785Z,99562.09
2018-05-13T12:19:54.401Z,99562.48
2018-05-13T12:22:24.615Z,99569.13
2018-05-13T12:24:54.461Z,99561.40
2018-05-13T12:27:24.473Z,99567.52
2018-05-13T12:29:54.059Z,99564.97
2018-05-13T12:32:24.617Z,99557.40
2018-05-13T12:34:54.777Z,99553.72
2018-05-13T12:37:25.312Z,99550.73
2018-05-13T12:39:54.894Z,99552.10
2018-05-13T12:42:24.958Z,99553.30
2018-05-13T12:44:54.787Z,99554.11
2018-05-13T12:47:24.654Z,99545.77
2018-05-13T12:49:55.537Z,99547.00
2018-05-13T12:52:25.402Z,99536.20
2018-05-13T12:54:54.869Z,99538.47
2018-05-13T12:57:25.043Z,99537.67
2018-05-13T12:59:54.637Z,99531.08
2018-05-13T13:02:25.973Z,99532.67
2018-05-13T13:04:55.765Z,99533.39
2018-05-13T13:07:26.165Z,99528.87
2018-05-13T13:09:56.475Z,99521.97
2018-05-13T13:12:26.027Z,99524.67
2018-05-13T13:14:55.737Z,99530.47
2018-05-13T13:17:25.655Z,99525.88
2018-05-13T13:19:57.224Z,99515.91
2018-05-13T13:22:27.326Z,99515.67
2018-05-13T13:24:57.384Z,99516.89
2018-05-13T13:27:27.186Z,99517.95
2018-05-13T13:29:56.660Z,99526.44
2018-05-13T13:32:26.341Z,99524.53
2018-05-13T13:34:55.762Z,99516.45
2018-05-13T13:37:26.211Z,99510.05
2018-05-13T13:39:56.826Z,99510.50
2018-05-13T13:42:29.571Z,99510.97
2018-05-13T13:45:00.293Z,99516.20
2018-05-13T13:47:30.181Z,99500.13
